sensor_id;sensor_type;location;lat;lon;timestamp;pressure;altitude;pressure_sealevel;temperature;humidity
39363;BME280;25088;43.238;23.110;2023-05-23T00:00:31;96339.34;;;13.58;100.00
39363;BME280;25088;43.238;23.110;2023-05-23T00:02:57;96334.91;;;13.62;100.00
39363;BME280;25088;43.238;23.110;2023-05-23T00:05:25;96334.09;;;13.61;100.00
39363;BME280;25088;43.238;23.110;2023-05-23T00:07:51;96338.81;;;13.51;100.00
39363;BME280;25088;43.238;23.110;2023-05-23T00:10:16;96328.16;;;13.39;100.00
39363;BME280;25088;43.238;23.110;2023-05-23T00:12:41;96333.91;;;13.37;100.00
39363;BME280;25088;43.238;23.110;2023-05-23T00:15:07;96321.03;;;13.38;100.00
39363;BME280;25088;43.238;23.110;2023-05-23T00:17:34;96316.63;;;13.42;100.00
39363;BME280;25088;43.238;23.110;2023-05-23T00:20:04;96316.38;;;13.38;100.00
39363;BME280;25088;43.238;23.110;2023-05-23T00:22:30;96322.38;;;13.45;100.00
39363;BME280;25088;43.238;23.110;2023-05-23T00:24:55;96315.25;;;13.39;100.00
39363;BME280;25088;43.238;23.110;2023-05-23T00:27:22;96320.19;;;13.37;100.00
39363;BME280;25088;43.238;23.110;2023-05-23T00:29:48;96316.94;;;13.30;100.00
39363;BME280;25088;43.238;23.110;2023-05-23T00:32:13;96317.72;;;13.36;100.00
39363;BME280;25088;43.238;23.110;2023-05-23T00:34:39;96325.13;;;13.40;100.00
39363;BME280;25088;43.238;23.110;2023-05-23T00:37:04;96320.16;;;13.42;100.00
39363;BME280;25088;43.238;23.110;2023-05-23T00:39:29;96326.72;;;13.57;100.00
39363;BME280;25088;43.238;23.110;2023-05-23T00:41:55;96327.28;;;13.59;100.00
39363;BME280;25088;43.238;23.110;2023-05-23T00:44:21;96326.97;;;13.65;100.00
39363;BME280;25088;43.238;23.110;2023-05-23T00:46:50;96322.00;;;13.73;100.00
39363;BME280;25088;43.238;23.110;2023-05-23T00:49:16;96320.31;;;13.77;100.00
39363;BME280;25088;43.238;23.110;2023-05-23T00:51:44;96327.97;;;13.90;100.00
39363;BME280;25088;43.238;23.110;2023-05-23T00:54:10;96331.75;;;13.99;100.00
39363;BME280;25088;43.238;23.110;2023-05-23T00:56:37;96331.53;;;13.90;100.00
39363;BME280;25088;43.238;23.110;2023-05-23T00:59:04;96326.41;;;13.74;100.00
39363;BME280;25088;43.238;23.110;2023-05-23T01:01:30;96323.94;;;13.67;100.00
39363;BME280;25088;43.238;23.110;2023-05-23T01:03:55;96321.00;;;13.53;100.00
39363;BME280;25088;43.238;23.110;2023-05-23T01:06:22;96327.53;;;13.57;100.00
39363;BME280;25088;43.238;23.110;2023-05-23T01:08:48;96319.59;;;13.51;100.00
39363;BME280;25088;43.238;23.110;2023-05-23T01:11:24;96316.34;;;13.49;100.00
39363;BME280;25088;43.238;23.110;2023-05-23T01:14:00;96320.69;;;13.55;100.00
39363;BME280;25088;43.238;23.110;2023-05-23T01:21:52;96321.28;;;13.36;100.00
39363;BME280;25088;43.238;23.110;2023-05-23T01:27:23;96318.31;;;13.33;100.00
39363;BME280;25088;43.238;23.110;2023-05-23T01:29:53;96298.59;;;13.10;100.00
39363;BME280;25088;43.238;23.110;2023-05-23T01:32:21;96301.88;;;13.07;100.00
39363;BME280;25088;43.238;23.110;2023-05-23T01:34:52;96309.81;;;13.09;100.00
39363;BME280;25088;43.238;23.110;2023-05-23T01:37:18;96302.16;;;13.01;100.00
39363;BME280;25088;43.238;23.110;2023-05-23T01:39:44;96302.97;;;12.96;100.00
39363;BME280;25088;43.238;23.110;2023-05-23T01:42:10;96308.47;;;12.96;100.00
39363;BME280;25088;43.238;23.110;2023-05-23T01:44:37;96308.47;;;12.96;100.00
39363;BME280;25088;43.238;23.110;2023-05-23T01:47:04;96298.91;;;12.88;100.00
39363;BME280;25088;43.238;23.110;2023-05-23T01:49:32;96297.22;;;12.98;100.00
39363;BME280;25088;43.238;23.110;2023-05-23T01:52:00;96305.44;;;13.03;100.00
39363;BME280;25088;43.238;23.110;2023-05-23T01:54:27;96301.88;;;13.02;100.00
39363;BME280;25088;43.238;23.110;2023-05-23T01:56:56;96300.78;;;13.03;100.00
39363;BME280;25088;43.238;23.110;2023-05-23T01:59:23;96298.34;;;12.91;100.00
39363;BME280;25088;43.238;23.110;2023-05-23T02:01:48;96300.25;;;12.86;100.00
39363;BME280;25088;43.238;23.110;2023-05-23T02:04:14;96304.09;;;12.85;100.00
39363;BME280;25088;43.238;23.110;2023-05-23T02:06:40;96300.81;;;12.88;100.00
39363;BME280;25088;43.238;23.110;2023-05-23T02:09:06;96304.38;;;12.83;100.00
39363;BME280;25088;43.238;23.110;2023-05-23T02:11:32;96301.06;;;12.86;100.00
39363;BME280;25088;43.238;23.110;2023-05-23T02:13:58;96302.19;;;12.90;100.00
39363;BME280;25088;43.238;23.110;2023-05-23T02:16:23;96306.81;;;12.95;100.00
39363;BME280;25088;43.238;23.110;2023-05-23T02:18:50;96290.13;;;12.86;100.00
39363;BME280;25088;43.238;23.110;2023-05-23T02:21:17;96303.81;;;12.91;100.00
39363;BME280;25088;43.238;23.110;2023-05-23T02:23:43;96302.72;;;12.92;100.00
39363;BME280;25088;43.238;23.110;2023-05-23T02:26:08;96306.00;;;12.94;100.00
39363;BME280;25088;43.238;23.110;2023-05-23T02:28:34;96301.88;;;12.92;100.00
39363;BME280;25088;43.238;23.110;2023-05-23T02:31:01;96289.31;;;12.76;100.00
39363;BME280;25088;43.238;23.110;2023-05-23T02:33:26;96303.28;;;12.74;100.00
39363;BME280;25088;43.238;23.110;2023-05-23T02:35:51;96300.81;;;12.67;100.00
39363;BME280;25088;43.238;23.110;2023-05-23T02:38:19;96301.38;;;12.64;100.00
39363;BME280;25088;43.238;23.110;2023-05-23T02:40:44;96308.78;;;12.69;100.00
39363;BME280;25088;43.238;23.110;2023-05-23T02:43:10;96312.63;;;12.68;100.00
39363;BME280;25088;43.238;23.110;2023-05-23T02:45:35;96313.16;;;12.70;100.00
39363;BME280;25088;43.238;23.110;2023-05-23T02:48:01;96317.53;;;12.71;100.00
39363;BME280;25088;43.238;23.110;2023-05-23T02:50:26;96315.06;;;12.70;100.00
39363;BME280;25088;43.238;23.110;2023-05-23T02:52:52;96315.06;;;12.70;100.00
39363;BME280;25088;43.238;23.110;2023-05-23T02:55:17;96255.91;;;12.33;100.00
39363;BME280;25088;43.238;23.110;2023-05-23T02:57:42;96318.09;;;12.68;100.00
39363;BME280;25088;43.238;23.110;2023-05-23T03:00:08;96305.47;;;12.62;100.00
39363;BME280;25088;43.238;23.110;2023-05-23T03:02:34;96313.69;;;12.67;100.00
39363;BME280;25088;43.238;23.110;2023-05-23T03:05:00;96304.94;;;12.55;100.00
39363;BME280;25088;43.238;23.110;2023-05-23T03:07:26;96311.78;;;12.62;100.00
39363;BME280;25088;43.238;23.110;2023-05-23T03:09:51;96309.31;;;12.61;100.00
39363;BME280;25088;43.238;23.110;2023-05-23T03:12:17;96318.63;;;12.60;100.00
39363;BME280;25088;43.238;23.110;2023-05-23T03:14:42;96310.41;;;12.55;100.00
39363;BME280;25088;43.238;23.110;2023-05-23T03:17:08;96304.38;;;12.53;100.00
39363;BME280;25088;43.238;23.110;2023-05-23T03:19:33;96308.78;;;12.54;100.00
39363;BME280;25088;43.238;23.110;2023-05-23T03:21:58;96312.59;;;12.53;100.00
39363;BME280;25088;43.238;23.110;2023-05-23T03:24:25;96314.50;;;12.57;100.00
39363;BME280;25088;43.238;23.110;2023-05-23T03:26:50;96309.84;;;12.58;100.00
39363;BME280;25088;43.238;23.110;2023-05-23T03:29:16;96313.44;;;12.58;100.00
39363;BME280;25088;43.238;23.110;2023-05-23T03:31:41;96306.03;;;12.64;100.00
39363;BME280;25088;43.238;23.110;2023-05-23T03:34:07;96309.59;;;12.70;100.00
39363;BME280;25088;43.238;23.110;2023-05-23T03:36:32;96304.94;;;12.70;100.00
39363;BME280;25088;43.238;23.110;2023-05-23T03:38:59;96313.44;;;12.74;100.00
39363;BME280;25088;43.238;23.110;2023-05-23T03:41:25;96319.44;;;12.81;100.00
39363;BME280;25088;43.238;23.110;2023-05-23T03:43:51;96322.72;;;12.83;100.00
39363;BME280;25088;43.238;23.110;2023-05-23T03:46:16;96322.47;;;12.84;100.00
39363;BME280;25088;43.238;23.110;2023-05-23T03:48:41;96311.50;;;12.89;100.00
39363;BME280;25088;43.238;23.110;2023-05-23T03:51:07;96309.28;;;12.97;100.00
39363;BME280;25088;43.238;23.110;2023-05-23T03:53:32;96316.97;;;13.00;100.00
39363;BME280;25088;43.238;23.110;2023-05-23T03:55:58;96330.13;;;13.08;100.00
39363;BME280;25088;43.238;23.110;2023-05-23T03:58:23;96323.53;;;13.14;100.00
39363;BME280;25088;43.238;23.110;2023-05-23T04:00:48;96329.00;;;13.19;100.00
39363;BME280;25088;43.238;23.110;2023-05-23T04:03:15;96313.66;;;13.13;100.00
39363;BME280;25088;43.238;23.110;2023-05-23T04:05:41;96334.78;;;13.28;100.00
39363;BME280;25088;43.238;23.110;2023-05-23T04:08:07;96329.28;;;13.33;100.00
39363;BME280;25088;43.238;23.110;2023-05-23T04:10:34;96315.00;;;13.31;100.00
39363;BME280;25088;43.238;23.110;2023-05-23T04:12:59;96311.97;;;13.37;100.00
39363;BME280;25088;43.238;23.110;2023-05-23T04:15:25;96336.63;;;13.42;100.00
39363;BME280;25088;43.238;23.110;2023-05-23T04:17:52;96337.97;;;13.55;100.00
39363;BME280;25088;43.238;23.110;2023-05-23T04:20:18;96339.31;;;13.68;100.00
39363;BME280;25088;43.238;23.110;2023-05-23T04:22:44;96342.25;;;13.82;100.00
39363;BME280;25088;43.238;23.110;2023-05-23T04:25:09;96348.00;;;13.90;100.00
39363;BME280;25088;43.238;23.110;2023-05-23T04:27:35;96343.28;;;13.96;100.00
39363;BME280;25088;43.238;23.110;2023-05-23T04:30:05;96338.34;;;13.98;100.00
39363;BME280;25088;43.238;23.110;2023-05-23T04:32:33;96352.28;;;14.07;100.00
39363;BME280;25088;43.238;23.110;2023-05-23T04:34:58;96352.25;;;14.17;100.00
39363;BME280;25088;43.238;23.110;2023-05-23T04:37:26;96343.44;;;14.20;100.00
39363;BME280;25088;43.238;23.110;2023-05-23T04:39:52;96352.22;;;14.22;100.00
39363;BME280;25088;43.238;23.110;2023-05-23T04:42:18;96349.75;;;14.20;100.00
39363;BME280;25088;43.238;23.110;2023-05-23T04:44:49;96356.00;;;14.31;100.00
39363;BME280;25088;43.238;23.110;2023-05-23T04:47:14;96364.25;;;14.31;100.00
39363;BME280;25088;43.238;23.110;2023-05-23T04:49:40;96365.91;;;14.32;100.00
39363;BME280;25088;43.238;23.110;2023-05-23T04:52:06;96367.03;;;14.26;100.00
39363;BME280;25088;43.238;23.110;2023-05-23T04:54:32;96368.09;;;14.30;100.00
39363;BME280;25088;43.238;23.110;2023-05-23T04:56:57;96366.97;;;14.36;100.00
39363;BME280;25088;43.238;23.110;2023-05-23T04:59:23;96368.63;;;14.37;100.00
39363;BME280;25088;43.238;23.110;2023-05-23T05:01:48;96370.25;;;14.38;100.00
39363;BME280;25088;43.238;23.110;2023-05-23T05:04:14;96367.41;;;14.59;100.00
39363;BME280;25088;43.238;23.110;2023-05-23T05:06:40;96347.31;;;14.63;100.00
39363;BME280;25088;43.238;23.110;2023-05-23T05:09:06;96353.03;;;14.72;100.00
39363;BME280;25088;43.238;23.110;2023-05-23T05:11:31;96360.34;;;14.82;100.00
39363;BME280;25088;43.238;23.110;2023-05-23T05:13:57;96368.78;;;14.95;100.00
39363;BME280;25088;43.238;23.110;2023-05-23T05:16:22;96366.97;;;15.15;100.00
39363;BME280;25088;43.238;23.110;2023-05-23T05:18:48;96356.63;;;15.31;100.00
39363;BME280;25088;43.238;23.110;2023-05-23T05:21:13;96350.03;;;15.56;100.00
39363;BME280;25088;43.238;23.110;2023-05-23T05:23:39;96353.38;;;15.82;100.00
39363;BME280;25088;43.238;23.110;2023-05-23T05:26:05;96361.09;;;16.03;100.00
39363;BME280;25088;43.238;23.110;2023-05-23T05:28:30;96366.72;;;16.17;100.00
39363;BME280;25088;43.238;23.110;2023-05-23T05:30:56;96357.75;;;16.25;100.00
39363;BME280;25088;43.238;23.110;2023-05-23T05:33:22;96359.22;;;16.42;100.00
39363;BME280;25088;43.238;23.110;2023-05-23T05:35:49;96357.47;;;16.65;100.00
39363;BME280;25088;43.238;23.110;2023-05-23T05:38:17;96362.78;;;16.99;100.00
39363;BME280;25088;43.238;23.110;2023-05-23T05:40:43;96359.47;;;17.16;100.00
39363;BME280;25088;43.238;23.110;2023-05-23T05:43:08;96366.63;;;17.17;100.00
39363;BME280;25088;43.238;23.110;2023-05-23T05:45:34;96364.28;;;17.56;100.00
39363;BME280;25088;43.238;23.110;2023-05-23T05:48:00;96361.44;;;17.89;100.00
39363;BME280;25088;43.238;23.110;2023-05-23T05:50:26;96366.34;;;18.20;100.00
39363;BME280;25088;43.238;23.110;2023-05-23T05:52:51;96362.75;;;18.47;99.28
39363;BME280;25088;43.238;23.110;2023-05-23T05:55:17;96352.03;;;18.68;95.45
39363;BME280;25088;43.238;23.110;2023-05-23T05:57:43;96354.41;;;18.97;89.88
39363;BME280;25088;43.238;23.110;2023-05-23T06:00:10;96348.31;;;19.08;85.93
39363;BME280;25088;43.238;23.110;2023-05-23T06:02:40;96356.53;;;19.45;87.24
39363;BME280;25088;43.238;23.110;2023-05-23T06:05:11;96355.84;;;19.61;82.09
39363;BME280;25088;43.238;23.110;2023-05-23T06:07:38;96343.72;;;19.80;79.56
39363;BME280;25088;43.238;23.110;2023-05-23T06:10:04;96339.41;;;20.05;79.10
39363;BME280;25088;43.238;23.110;2023-05-23T06:12:29;96352.50;;;20.22;74.22
39363;BME280;25088;43.238;23.110;2023-05-23T06:14:55;96349.63;;;20.53;72.55
39363;BME280;25088;43.238;23.110;2023-05-23T06:17:21;96321.28;;;20.64;73.41
39363;BME280;25088;43.238;23.110;2023-05-23T06:19:46;96347.72;;;20.97;71.17
39363;BME280;25088;43.238;23.110;2023-05-23T06:22:11;96352.13;;;21.15;71.59
39363;BME280;25088;43.238;23.110;2023-05-23T06:24:37;96349.47;;;21.53;69.79
39363;BME280;25088;43.238;23.110;2023-05-23T06:27:02;96351.09;;;21.54;65.59
39363;BME280;25088;43.238;23.110;2023-05-23T06:29:28;96343.44;;;21.98;68.10
39363;BME280;25088;43.238;23.110;2023-05-23T06:31:55;96344.97;;;22.25;63.67
39363;BME280;25088;43.238;23.110;2023-05-23T06:34:20;96353.50;;;22.50;65.26
39363;BME280;25088;43.238;23.110;2023-05-23T06:36:46;96352.97;;;22.77;63.91
39363;BME280;25088;43.238;23.110;2023-05-23T06:39:12;96344.88;;;22.93;60.84
39363;BME280;25088;43.238;23.110;2023-05-23T06:41:38;96349.66;;;23.26;59.77
39363;BME280;25088;43.238;23.110;2023-05-23T06:44:04;96340.88;;;23.36;59.29
39363;BME280;25088;43.238;23.110;2023-05-23T06:46:30;96342.66;;;23.73;58.29
39363;BME280;25088;43.238;23.110;2023-05-23T06:48:56;96338.16;;;24.06;57.45
39363;BME280;25088;43.238;23.110;2023-05-23T06:51:21;96345.00;;;24.20;56.60
39363;BME280;25088;43.238;23.110;2023-05-23T06:53:47;96339.91;;;24.71;54.88
39363;BME280;25088;43.238;23.110;2023-05-23T06:56:12;96333.69;;;24.90;54.88
39363;BME280;25088;43.238;23.110;2023-05-23T06:58:38;96331.22;;;25.13;53.84
39363;BME280;25088;43.238;23.110;2023-05-23T07:01:03;96329.50;;;25.37;53.97
39363;BME280;25088;43.238;23.110;2023-05-23T07:03:29;96309.44;;;25.35;52.91
39363;BME280;25088;43.238;23.110;2023-05-23T07:05:55;96323.31;;;25.59;53.18
39363;BME280;25088;43.238;23.110;2023-05-23T07:08:20;96329.25;;;25.58;50.87
39363;BME280;25088;43.238;23.110;2023-05-23T07:10:46;96329.97;;;25.83;50.62
39363;BME280;25088;43.238;23.110;2023-05-23T07:13:11;96315.06;;;25.94;50.33
39363;BME280;25088;43.238;23.110;2023-05-23T07:15:37;96327.63;;;26.16;50.87
39363;BME280;25088;43.238;23.110;2023-05-23T07:18:02;96315.94;;;26.30;49.58
39363;BME280;25088;43.238;23.110;2023-05-23T07:20:28;96314.53;;;26.52;49.75
39363;BME280;25088;43.238;23.110;2023-05-23T07:22:53;96311.03;;;26.94;48.70
39363;BME280;25088;43.238;23.110;2023-05-23T07:25:19;96315.94;;;26.97;49.75
39363;BME280;25088;43.238;23.110;2023-05-23T07:27:46;96312.78;;;27.37;48.68
39363;BME280;25088;43.238;23.110;2023-05-23T07:30:12;96322.00;;;27.18;46.67
39363;BME280;25088;43.238;23.110;2023-05-23T07:32:38;96315.06;;;27.12;47.15
39363;BME280;25088;43.238;23.110;2023-05-23T07:35:04;96243.69;;;26.87;46.90
39363;BME280;25088;43.238;23.110;2023-05-23T07:37:29;96313.00;;;27.09;48.31
39363;BME280;25088;43.238;23.110;2023-05-23T07:39:55;96311.09;;;27.33;46.33
39363;BME280;25088;43.238;23.110;2023-05-23T07:42:20;96311.25;;;27.82;45.70
39363;BME280;25088;43.238;23.110;2023-05-23T07:44:45;96309.72;;;27.65;44.51
39363;BME280;25088;43.238;23.110;2023-05-23T07:47:11;96304.72;;;28.20;45.08
39363;BME280;25088;43.238;23.110;2023-05-23T07:49:36;96296.78;;;28.26;44.63
39363;BME280;25088;43.238;23.110;2023-05-23T07:52:02;96310.06;;;28.52;43.38
39363;BME280;25088;43.238;23.110;2023-05-23T07:54:27;96316.75;;;27.98;43.83
39363;BME280;25088;43.238;23.110;2023-05-23T07:56:53;96308.63;;;28.39;44.11
39363;BME280;25088;43.238;23.110;2023-05-23T07:59:19;96289.19;;;28.79;43.21
39363;BME280;25088;43.238;23.110;2023-05-23T08:01:44;96312.41;;;29.03;42.42
39363;BME280;25088;43.238;23.110;2023-05-23T08:04:10;96307.53;;;28.70;42.18
39363;BME280;25088;43.238;23.110;2023-05-23T08:06:35;96316.50;;;29.09;42.17
39363;BME280;25088;43.238;23.110;2023-05-23T08:09:02;96306.13;;;29.47;42.65
39363;BME280;25088;43.238;23.110;2023-05-23T08:11:28;96309.09;;;29.57;41.25
39363;BME280;25088;43.238;23.110;2023-05-23T08:13:54;96301.88;;;29.26;41.12
39363;BME280;25088;43.238;23.110;2023-05-23T08:16:20;96306.41;;;29.34;41.52
39363;BME280;25088;43.238;23.110;2023-05-23T08:18:45;96299.84;;;29.98;39.97
39363;BME280;25088;43.238;23.110;2023-05-23T08:21:11;96300.91;;;29.82;39.87
39363;BME280;25088;43.238;23.110;2023-05-23T08:23:37;96297.13;;;30.08;39.62
39363;BME280;25088;43.238;23.110;2023-05-23T08:26:02;96292.69;;;30.04;38.92
39363;BME280;25088;43.238;23.110;2023-05-23T08:28:27;96303.31;;;30.21;38.11
39363;BME280;25088;43.238;23.110;2023-05-23T08:30:53;96299.91;;;30.46;36.97
39363;BME280;25088;43.238;23.110;2023-05-23T08:33:21;96282.00;;;30.75;34.70
39363;BME280;25088;43.238;23.110;2023-05-23T08:35:46;96292.78;;;30.66;34.20
39363;BME280;25088;43.238;23.110;2023-05-23T08:38:12;96300.13;;;30.74;36.05
39363;BME280;25088;43.238;23.110;2023-05-23T08:40:38;96297.81;;;30.35;35.74
39363;BME280;25088;43.238;23.110;2023-05-23T08:43:06;96300.16;;;29.85;36.89
39363;BME280;25088;43.238;23.110;2023-05-23T08:45:34;96295.38;;;29.90;36.33
39363;BME280;25088;43.238;23.110;2023-05-23T08:48:00;96295.13;;;30.53;35.43
39363;BME280;25088;43.238;23.110;2023-05-23T08:50:28;96299.19;;;30.59;36.90
39363;BME280;25088;43.238;23.110;2023-05-23T08:52:56;96295.31;;;30.75;35.28
39363;BME280;25088;43.238;23.110;2023-05-23T08:55:28;96296.78;;;31.27;34.54
39363;BME280;25088;43.238;23.110;2023-05-23T08:57:56;96301.28;;;31.39;33.99
39363;BME280;25088;43.238;23.110;2023-05-23T09:00:24;96299.34;;;31.54;33.88
39363;BME280;25088;43.238;23.110;2023-05-23T09:02:49;96305.78;;;31.54;34.02
39363;BME280;25088;43.238;23.110;2023-05-23T09:05:15;96301.25;;;31.32;34.10
39363;BME280;25088;43.238;23.110;2023-05-23T09:07:42;96296.25;;;32.09;32.92
39363;BME280;25088;43.238;23.110;2023-05-23T09:10:09;96297.72;;;31.67;33.17
39363;BME280;25088;43.238;23.110;2023-05-23T09:12:34;96270.00;;;32.05;32.36
39363;BME280;25088;43.238;23.110;2023-05-23T09:15:04;96297.06;;;32.59;32.21
39363;BME280;25088;43.238;23.110;2023-05-23T09:17:33;96295.00;;;32.17;31.80
39363;BME280;25088;43.238;23.110;2023-05-23T09:19:58;96295.47;;;32.48;30.96
39363;BME280;25088;43.238;23.110;2023-05-23T09:22:26;96290.56;;;32.80;31.37
39363;BME280;25088;43.238;23.110;2023-05-23T09:24:53;96281.31;;;32.23;31.42
39363;BME280;25088;43.238;23.110;2023-05-23T09:27:19;96292.63;;;32.69;31.93
39363;BME280;25088;43.238;23.110;2023-05-23T09:29:44;96288.97;;;32.11;32.17
39363;BME280;25088;43.238;23.110;2023-05-23T09:32:16;96296.28;;;32.37;33.01
39363;BME280;25088;43.238;23.110;2023-05-23T09:37:20;96291.31;;;31.77;32.00
39363;BME280;25088;43.238;23.110;2023-05-23T09:39:49;96293.38;;;31.91;32.05
39363;BME280;25088;43.238;23.110;2023-05-23T09:42:19;96286.16;;;32.08;31.41
39363;BME280;25088;43.238;23.110;2023-05-23T09:44:45;96293.84;;;32.50;31.27
39363;BME280;25088;43.238;23.110;2023-05-23T09:47:11;96289.00;;;32.44;30.92
39363;BME280;25088;43.238;23.110;2023-05-23T09:49:39;96283.72;;;32.56;32.01
39363;BME280;25088;43.238;23.110;2023-05-23T09:52:05;96267.94;;;32.87;30.02
39363;BME280;25088;43.238;23.110;2023-05-23T09:54:31;96275.97;;;33.14;29.18
39363;BME280;25088;43.238;23.110;2023-05-23T09:56:58;96275.53;;;33.19;29.26
39363;BME280;25088;43.238;23.110;2023-05-23T09:59:27;96285.19;;;33.32;29.35
39363;BME280;25088;43.238;23.110;2023-05-23T10:01:55;96278.38;;;33.19;29.28
39363;BME280;25088;43.238;23.110;2023-05-23T10:04:21;96270.84;;;33.75;27.66
39363;BME280;25088;43.238;23.110;2023-05-23T10:06:56;96265.72;;;34.18;27.45
39363;BME280;25088;43.238;23.110;2023-05-23T10:09:25;96272.94;;;34.27;28.52
39363;BME280;25088;43.238;23.110;2023-05-23T10:14:25;96262.13;;;33.44;30.04
39363;BME280;25088;43.238;23.110;2023-05-23T10:17:17;96262.78;;;33.66;28.93
39363;BME280;25088;43.238;23.110;2023-05-23T10:22:22;96262.34;;;33.75;30.49
39363;BME280;25088;43.238;23.110;2023-05-23T10:24:48;96257.19;;;33.59;29.34
39363;BME280;25088;43.238;23.110;2023-05-23T10:27:14;96259.41;;;33.97;30.05
39363;BME280;25088;43.238;23.110;2023-05-23T10:29:40;96254.69;;;33.72;29.82
39363;BME280;25088;43.238;23.110;2023-05-23T10:32:06;96248.88;;;33.93;30.44
39363;BME280;25088;43.238;23.110;2023-05-23T10:35:03;96250.41;;;33.32;30.36
39363;BME280;25088;43.238;23.110;2023-05-23T10:37:39;96248.56;;;32.89;30.47
39363;BME280;25088;43.238;23.110;2023-05-23T10:43:46;96242.16;;;32.60;30.32
39363;BME280;25088;43.238;23.110;2023-05-23T10:46:13;96232.06;;;32.63;28.96
39363;BME280;25088;43.238;23.110;2023-05-23T10:48:43;96244.00;;;33.21;29.93
39363;BME280;25088;43.238;23.110;2023-05-23T10:51:10;96246.44;;;33.22;29.79
39363;BME280;25088;43.238;23.110;2023-05-23T10:53:41;96239.56;;;33.23;28.06
39363;BME280;25088;43.238;23.110;2023-05-23T10:56:08;96239.19;;;33.07;28.23
39363;BME280;25088;43.238;23.110;2023-05-23T10:58:40;96238.16;;;33.63;27.40
39363;BME280;25088;43.238;23.110;2023-05-23T11:01:12;96240.94;;;33.70;27.88
39363;BME280;25088;43.238;23.110;2023-05-23T11:09:12;96244.19;;;32.28;30.64
39363;BME280;25088;43.238;23.110;2023-05-23T11:14:15;96240.47;;;32.91;29.50
39363;BME280;25088;43.238;23.110;2023-05-23T11:16:42;96235.84;;;33.44;28.59
39363;BME280;25088;43.238;23.110;2023-05-23T11:24:21;96239.34;;;32.28;29.75
39363;BME280;25088;43.238;23.110;2023-05-23T11:26:54;96241.41;;;30.87;31.80
39363;BME280;25088;43.238;23.110;2023-05-23T11:29:25;96233.28;;;30.71;32.07
39363;BME280;25088;43.238;23.110;2023-05-23T11:31:51;96231.56;;;31.36;30.85
39363;BME280;25088;43.238;23.110;2023-05-23T11:34:17;96217.56;;;32.11;30.78
39363;BME280;25088;43.238;23.110;2023-05-23T11:36:43;96239.34;;;32.03;29.83
39363;BME280;25088;43.238;23.110;2023-05-23T11:39:09;96228.19;;;31.02;31.31
39363;BME280;25088;43.238;23.110;2023-05-23T11:41:34;96230.75;;;31.43;30.33
39363;BME280;25088;43.238;23.110;2023-05-23T11:44:00;96217.94;;;32.31;29.85
39363;BME280;25088;43.238;23.110;2023-05-23T11:46:26;96211.44;;;32.73;28.83
39363;BME280;25088;43.238;23.110;2023-05-23T11:48:51;96213.69;;;33.21;28.74
39363;BME280;25088;43.238;23.110;2023-05-23T11:51:17;96217.63;;;33.41;27.28
39363;BME280;25088;43.238;23.110;2023-05-23T11:53:44;96221.31;;;33.31;27.71
39363;BME280;25088;43.238;23.110;2023-05-23T11:56:09;96226.44;;;31.91;29.97
39363;BME280;25088;43.238;23.110;2023-05-23T11:58:36;96229.25;;;32.16;30.79
39363;BME280;25088;43.238;23.110;2023-05-23T12:01:03;96207.47;;;32.28;30.04
39363;BME280;25088;43.238;23.110;2023-05-23T12:03:29;96207.25;;;30.99;31.58
39363;BME280;25088;43.238;23.110;2023-05-23T12:05:56;96223.16;;;30.11;32.04
39363;BME280;25088;43.238;23.110;2023-05-23T12:08:21;96200.00;;;29.81;32.89
39363;BME280;25088;43.238;23.110;2023-05-23T12:10:50;96214.47;;;30.97;31.08
39363;BME280;25088;43.238;23.110;2023-05-23T12:13:15;96211.38;;;31.27;29.26
39363;BME280;25088;43.238;23.110;2023-05-23T12:15:41;96192.13;;;32.11;30.48
39363;BME280;25088;43.238;23.110;2023-05-23T12:18:06;96198.19;;;32.45;28.86
39363;BME280;25088;43.238;23.110;2023-05-23T12:20:32;96191.59;;;32.87;28.46
39363;BME280;25088;43.238;23.110;2023-05-23T12:23:03;96186.09;;;33.39;27.14
39363;BME280;25088;43.238;23.110;2023-05-23T12:25:37;96191.53;;;33.05;27.32
39363;BME280;25088;43.238;23.110;2023-05-23T12:28:04;96192.41;;;32.84;27.83
39363;BME280;25088;43.238;23.110;2023-05-23T12:30:40;96184.63;;;33.17;27.19
39363;BME280;25088;43.238;23.110;2023-05-23T12:33:09;96187.56;;;32.85;27.17
39363;BME280;25088;43.238;23.110;2023-05-23T12:35:36;96182.03;;;32.24;26.98
39363;BME280;25088;43.238;23.110;2023-05-23T12:38:05;96185.53;;;32.85;27.67
39363;BME280;25088;43.238;23.110;2023-05-23T12:40:34;96176.66;;;32.83;28.45
39363;BME280;25088;43.238;23.110;2023-05-23T12:43:00;96178.41;;;33.40;28.74
39363;BME280;25088;43.238;23.110;2023-05-23T12:45:33;96161.09;;;33.90;27.31
39363;BME280;25088;43.238;23.110;2023-05-23T12:47:59;96169.50;;;34.04;26.63
39363;BME280;25088;43.238;23.110;2023-05-23T12:50:25;96158.75;;;34.26;26.43
39363;BME280;25088;43.238;23.110;2023-05-23T12:52:50;96150.56;;;33.90;26.90
39363;BME280;25088;43.238;23.110;2023-05-23T12:55:16;96165.97;;;33.27;27.38
39363;BME280;25088;43.238;23.110;2023-05-23T12:57:42;96155.06;;;33.29;27.05
39363;BME280;25088;43.238;23.110;2023-05-23T13:00:09;96159.63;;;33.05;27.97
39363;BME280;25088;43.238;23.110;2023-05-23T13:02:35;96152.84;;;32.81;26.65
39363;BME280;25088;43.238;23.110;2023-05-23T13:05:00;96160.16;;;31.14;27.07
39363;BME280;25088;43.238;23.110;2023-05-23T13:07:26;96159.78;;;31.19;27.48
39363;BME280;25088;43.238;23.110;2023-05-23T13:09:51;96164.28;;;31.81;27.54
39363;BME280;25088;43.238;23.110;2023-05-23T13:12:16;96154.22;;;32.19;27.45
39363;BME280;25088;43.238;23.110;2023-05-23T13:14:42;96155.03;;;31.87;27.97